Time;durP1;ratioP1;P1;durP2;ratioP2;P2;SDS_P1;SDS_P2;PMS_P1;PMS_P2;Temp;Humidity;BMP_temperature;BMP_pressure;BME280_temperature;BME280_humidity;BME280_pressure;Samples;Min_cycle;Max_cycle;Signal;HPM_P1;HPM_P2
2022/04/26 03:36:25;;;;;;;46.17;25.08;;;;;;;13.39;68.86;99506.41;4996506;28;20042;-83
2022/04/26 03:38:52;;;;;;;51.92;27.27;;;;;;;13.39;68.92;99499.25;4984329;28;20461;-85
2022/04/26 03:41:19;;;;;;;53.50;26.83;;;;;;;13.38;68.92;99502.91;4939790;28;21340;-85
2022/04/26 03:43:46;;;;;;;51.38;26.95;;;;;;;13.38;68.84;99504.72;4966823;28;20133;-85
2022/04/26 03:46:13;;;;;;;50.92;27.25;;;;;;;13.38;68.88;99499.38;4985083;28;20049;-85
2022/04/26 03:48:40;;;;;;;52.17;27.65;;;;;;;13.36;69.02;99499.56;4961968;28;20057;-84
2022/04/26 03:51:07;;;;;;;53.00;27.95;;;;;;;13.36;69.17;99506.75;4960642;28;20046;-84
2022/04/26 03:53:34;;;;;;;53.85;27.77;;;;;;;13.36;69.02;99498.75;4986054;28;20039;-85
2022/04/26 03:56:00;;;;;;;52.22;26.58;;;;;;;13.35;69.20;99497.88;4977889;28;20129;-84
2022/04/26 03:58:28;;;;;;;52.08;27.55;;;;;;;13.36;69.18;99504.06;4944883;28;20050;-84
2022/04/26 04:00:56;;;;;;;55.60;28.00;;;;;;;13.35;69.15;99507.72;4985970;28;20425;-84
2022/04/26 04:03:23;;;;;;;54.45;27.48;;;;;;;13.34;69.20;99506.88;4986832;28;20046;-84
2022/04/26 04:05:52;;;;;;;57.25;27.30;;;;;;;13.33;69.10;99515.03;4982405;28;20920;-84
2022/04/26 04:08:19;;;;;;;51.22;26.73;;;;;;;13.32;69.10;99524.88;5002515;28;20065;-84
2022/04/26 04:10:46;;;;;;;57.67;27.38;;;;;;;13.30;69.33;99513.53;4987775;28;20498;-84
2022/04/26 04:13:13;;;;;;;55.08;28.48;;;;;;;13.31;69.42;99522.41;4954433;28;20050;-83
2022/04/26 04:15:40;;;;;;;56.00;29.45;;;;;;;13.29;69.69;99505.72;4969214;28;20046;-85
2022/04/26 04:19:17;;;;;;;55.05;28.63;;;;;;;13.28;69.55;99510.22;4981201;28;20050;-85
2022/04/26 04:20:54;;;;;;;61.00;29.20;;;;;;;13.28;69.47;99506.69;4951736;28;20559;-85
2022/04/26 04:23:21;;;;;;;53.72;26.63;;;;;;;13.28;69.44;99510.22;4951054;28;20156;-84
2022/04/26 04:25:49;;;;;;;53.13;27.88;;;;;;;13.28;69.38;99506.69;4960909;28;20871;-86
2022/04/26 04:28:16;;;;;;;67.60;35.35;;;;;;;13.27;69.50;99500.53;4986505;28;20050;-83
2022/04/26 04:30:42;;;;;;;79.78;42.38;;;;;;;13.27;69.65;99515.69;4990207;28;20053;-82
2022/04/26 04:33:09;;;;;;;77.03;38.00;;;;;;;13.26;69.68;99506.84;4970949;28;20046;-82
2022/04/26 04:35:36;;;;;;;67.03;33.35;;;;;;;13.27;69.72;99515.69;4963361;28;20057;-82
2022/04/26 04:38:02;;;;;;;64.40;32.50;;;;;;;13.26;69.64;99517.50;4972208;28;20050;-82
2022/04/26 04:40:29;;;;;;;54.70;27.23;;;;;;;13.26;69.53;99522.84;4957010;28;20042;-83
2022/04/26 04:42:56;;;;;;;57.90;26.83;;;;;;;13.25;69.56;99521.16;4971355;28;20054;-83
2022/04/26 04:45:23;;;;;;;54.22;28.50;;;;;;;13.24;69.66;99530.16;4984087;28;20482;-83
2022/04/26 04:47:50;;;;;;;60.70;28.73;;;;;;;13.23;69.41;99532.00;4986139;28;20402;-83
2022/04/26 04:50:16;;;;;;;57.30;28.08;;;;;;;13.22;69.74;99540.97;4986579;28;20050;-83
2022/04/26 04:52:45;;;;;;;47.90;24.45;;;;;;;13.22;69.01;99548.97;4966450;28;20036;-83
2022/04/26 04:55:12;;;;;;;47.70;23.35;;;;;;;13.21;69.46;99559.81;5002010;28;20397;-83
2022/04/26 04:57:40;;;;;;;44.30;22.25;;;;;;;13.21;69.43;99563.31;4942774;28;20057;-83
2022/04/26 05:00:07;;;;;;;36.45;19.83;;;;;;;13.19;69.32;99556.47;4969467;28;20054;-83
2022/04/26 05:02:34;;;;;;;34.55;18.02;;;;;;;13.17;69.34;99561.94;4987532;28;20042;-83
2022/04/26 05:05:00;;;;;;;32.05;19.27;;;;;;;13.18;69.62;99565.47;4959617;28;20042;-83
2022/04/26 05:07:28;;;;;;;34.30;18.40;;;;;;;13.16;69.40;99567.44;4989401;28;20046;-83
2022/04/26 05:09:55;;;;;;;36.63;18.55;;;;;;;13.16;69.61;99567.44;4956174;28;20156;-83
2022/04/26 05:12:22;;;;;;;33.08;17.85;;;;;;;13.15;69.65;99563.94;4985662;28;20046;-83
2022/04/26 05:14:49;;;;;;;35.13;17.83;;;;;;;13.15;69.68;99571.94;4988989;28;20489;-83
2022/04/26 05:17:15;;;;;;;37.80;19.27;;;;;;;13.15;69.79;99565.75;4987072;28;20034;-83
2022/04/26 05:19:44;;;;;;;35.42;19.30;;;;;;;13.14;69.92;99570.25;4982994;28;20109;-83
2022/04/26 05:22:11;;;;;;;37.30;19.15;;;;;;;13.13;70.07;99571.28;4986916;28;20053;-83
2022/04/26 05:24:54;;;;;;;41.97;21.25;;;;;;;13.12;70.03;99561.56;4984607;28;20105;-83
2022/04/26 05:27:21;;;;;;;40.83;21.25;;;;;;;13.08;70.07;99562.91;4995443;28;20054;-83
2022/04/26 05:29:48;;;;;;;41.97;22.13;;;;;;;13.09;70.17;99563.75;4976369;28;20050;-83
2022/04/26 05:32:26;;;;;;;40.25;21.08;;;;;;;12.99;70.55;99556.69;4936640;28;20047;-83
2022/04/26 05:35:01;;;;;;;41.05;21.48;;;;;;;13.00;70.60;99553.03;4969602;28;20050;-83
2022/04/26 05:37:30;;;;;;;44.78;21.88;;;;;;;13.08;70.46;99549.59;4988712;28;20418;-83
2022/04/26 05:39:59;;;;;;;44.08;22.98;;;;;;;13.08;70.48;99544.25;5007960;28;20072;-83
2022/04/26 05:42:26;;;;;;;42.70;21.88;;;;;;;13.08;70.48;99538.06;4963548;28;20051;-83
2022/04/26 05:44:53;;;;;;;41.03;20.88;;;;;;;13.08;70.56;99546.06;4955493;28;20504;-83
2022/04/26 05:47:20;;;;;;;39.63;20.70;;;;;;;13.07;70.24;99550.56;4978921;28;20544;-82
2022/04/26 05:49:47;;;;;;;39.30;20.60;;;;;;;13.08;70.59;99551.38;4985256;28;20047;-82
2022/04/26 05:52:14;;;;;;;36.80;20.77;;;;;;;13.08;70.38;99546.91;4953026;28;20042;-83
2022/04/26 05:54:41;;;;;;;39.85;21.40;;;;;;;13.07;70.41;99545.22;4983452;28;20509;-83
2022/04/26 05:57:08;;;;;;;37.92;21.05;;;;;;;13.08;70.50;99546.06;4976914;28;20050;-83
2022/04/26 05:59:35;;;;;;;39.40;20.30;;;;;;;13.07;70.53;99549.72;4952520;28;20053;-82
2022/04/26 06:02:02;;;;;;;38.25;19.90;;;;;;;13.07;70.54;99549.72;4969266;28;20049;-82
2022/04/26 06:04:29;;;;;;;39.15;20.20;;;;;;;13.07;70.74;99547.06;4981694;28;20065;-83
2022/04/26 06:06:56;;;;;;;40.25;20.77;;;;;;;13.07;70.72;99552.41;4984422;28;20046;-82
2022/04/26 06:09:23;;;;;;;27.50;16.15;;;;;;;13.07;70.52;99560.38;4953480;28;20198;-83
2022/04/26 06:11:49;;;;;;;34.10;17.58;;;;;;;13.05;70.35;99552.53;4982997;28;20785;-83
2022/04/26 06:14:16;;;;;;;31.65;17.38;;;;;;;13.06;70.41;99559.56;4987120;28;20053;-83
2022/04/26 06:16:43;;;;;;;26.15;14.32;;;;;;;13.07;70.21;99563.06;4968547;28;20510;-83
2022/04/26 06:19:10;;;;;;;21.75;11.55;;;;;;;13.07;70.04;99569.22;4986499;28;20490;-82
2022/04/26 06:21:37;;;;;;;20.40;11.60;;;;;;;13.08;69.84;99573.56;4983955;28;20049;-82
2022/04/26 06:24:04;;;;;;;20.40;10.80;;;;;;;13.11;69.58;99565.25;4951758;28;20043;-83
2022/04/26 06:26:30;;;;;;;20.92;11.05;;;;;;;13.12;69.96;99566.91;4985385;28;20050;-82
2022/04/26 06:28:57;;;;;;;17.30;9.95;;;;;;;13.13;69.92;99563.28;4969214;28;20101;-83
2022/04/26 06:31:24;;;;;;;15.27;9.88;;;;;;;13.15;69.72;99561.28;4983260;28;20050;-83
2022/04/26 06:33:51;;;;;;;16.65;10.73;;;;;;;13.15;69.90;99569.28;4965388;28;20044;-83
2022/04/26 06:36:17;;;;;;;23.27;12.57;;;;;;;13.15;69.89;99563.94;4967980;28;20047;-83
2022/04/26 06:38:44;;;;;;;22.52;12.85;;;;;;;13.15;69.97;99561.28;4986897;28;20046;-83
2022/04/26 06:41:11;;;;;;;18.95;11.45;;;;;;;13.15;70.31;99561.28;4983760;28;20482;-83
2022/04/26 06:43:39;;;;;;;13.27;8.30;;;;;;;13.17;69.60;99569.09;4971989;28;20100;-83
2022/04/26 06:46:06;;;;;;;19.33;8.63;;;;;;;13.18;69.80;99568.13;4988078;28;20054;-83
2022/04/26 06:48:33;;;;;;;8.30;5.95;;;;;;;13.18;70.05;99573.47;4969391;28;20045;-83
2022/04/26 06:50:59;;;;;;;9.52;6.88;;;;;;;13.17;70.01;99569.09;4988525;28;20100;-83
2022/04/26 06:53:26;;;;;;;11.48;6.50;;;;;;;13.16;69.84;99573.59;4983526;28;20405;-82
2022/04/26 06:55:53;;;;;;;10.95;5.55;;;;;;;13.13;69.88;99579.25;4991492;28;20042;-83
2022/04/26 06:58:20;;;;;;;11.73;6.47;;;;;;;13.11;70.08;99583.09;4984900;28;20622;-82
2022/04/26 07:00:49;;;;;;;9.30;5.90;;;;;;;13.09;70.00;99588.56;4965986;28;20062;-83
2022/04/26 07:03:16;;;;;;;9.18;6.00;;;;;;;13.07;69.83;99584.38;4984335;28;20046;-83
2022/04/26 07:05:44;;;;;;;10.73;5.90;;;;;;;13.05;69.83;99584.53;4985198;28;20141;-83
2022/04/26 07:08:11;;;;;;;10.30;5.75;;;;;;;13.03;70.10;99589.22;4981268;28;20605;-83
2022/04/26 07:10:43;;;;;;;9.70;5.95;;;;;;;13.01;70.08;99585.84;4984022;28;20046;-83
2022/04/26 07:13:10;;;;;;;9.32;6.15;;;;;;;13.01;70.27;99588.53;4986318;28;20046;-82
2022/04/26 07:15:36;;;;;;;9.80;5.75;;;;;;;13.00;70.65;99585.03;4972647;28;20049;-83
2022/04/26 07:18:03;;;;;;;8.77;6.25;;;;;;;13.01;70.47;99588.53;4964498;28;20482;-83
2022/04/26 07:20:31;;;;;;;8.82;5.85;;;;;;;13.00;70.71;99586.81;4988641;28;20044;-83
2022/04/26 07:22:57;;;;;;;9.32;5.40;;;;;;;13.00;70.35;99597.50;4971916;28;20104;-82
2022/04/26 07:25:24;;;;;;;6.95;4.70;;;;;;;12.99;70.67;99583.34;4948098;28;20048;-82
2022/04/26 07:27:51;;;;;;;8.85;4.53;;;;;;;13.01;70.69;99584.03;4966887;28;20069;-83
2022/04/26 07:30:18;;;;;;;9.70;5.43;;;;;;;13.00;70.54;99581.50;4954293;28;20386;-82
2022/04/26 07:35:31;;;;;;;8.60;5.88;;;;;;;13.00;70.74;99584.16;4978853;28;20049;-81
2022/04/26 07:38:05;;;;;;;8.57;5.40;;;;;;;12.97;70.97;99601.31;4970046;28;20113;-81
2022/04/26 07:40:32;;;;;;;11.48;6.15;;;;;;;13.03;70.42;99597.19;4984486;28;20042;-81
2022/04/26 07:43:00;;;;;;;7.53;5.70;;;;;;;13.04;70.32;99598.88;4989730;28;20049;-81
2022/04/26 07:45:26;;;;;;;10.32;5.97;;;;;;;13.04;70.56;99612.19;4998387;28;20409;-81
2022/04/26 07:47:53;;;;;;;9.45;5.65;;;;;;;13.02;70.23;99607.00;4964792;28;20042;-81
2022/04/26 07:50:20;;;;;;;12.25;5.90;;;;;;;13.01;69.86;99604.50;5002450;28;20046;-81
2022/04/26 07:52:47;;;;;;;8.75;4.70;;;;;;;13.00;69.98;99610.81;4969343;28;20524;-81
2022/04/26 07:55:13;;;;;;;8.77;5.32;;;;;;;13.00;70.06;99613.47;4970584;28;20453;-81
2022/04/26 07:57:40;;;;;;;12.15;6.07;;;;;;;12.98;69.94;99607.50;4986299;28;20050;-81
2022/04/26 08:00:07;;;;;;;8.25;5.68;;;;;;;12.98;69.61;99607.50;4966814;28;20042;-81
2022/04/26 08:02:40;;;;;;;8.50;5.43;;;;;;;12.97;69.94;99608.47;4986734;28;20042;-81
2022/04/26 08:05:07;;;;;;;8.05;5.70;;;;;;;12.99;70.26;99604.66;4969740;28;20049;-83
2022/04/26 08:07:39;;;;;;;10.43;6.30;;;;;;;13.02;70.64;99604.34;4969044;28;20053;-82
2022/04/26 08:10:09;;;;;;;9.63;6.00;;;;;;;12.97;70.59;99595.97;4987025;28;20050;-83
2022/04/26 08:12:37;;;;;;;11.18;7.20;;;;;;;13.07;70.39;99606.53;4987564;28;20057;-82
2022/04/26 08:15:05;;;;;;;12.43;7.50;;;;;;;13.10;69.95;99603.59;4988619;28;20042;-82
2022/04/26 08:17:31;;;;;;;11.93;8.23;;;;;;;13.09;70.23;99609.06;4986067;28;20043;-82
2022/04/26 08:19:58;;;;;;;10.95;6.70;;;;;;;13.10;69.55;99616.06;4969006;28;20527;-82
2022/04/26 08:22:25;;;;;;;10.95;6.85;;;;;;;13.12;69.68;99617.56;4979644;28;20058;-82
2022/04/26 08:27:37;;;;;;;12.15;8.18;;;;;;;13.09;70.08;99622.38;4982535;28;21216;-82
2022/04/26 08:30:04;;;;;;;13.25;8.40;;;;;;;13.11;70.05;99623.91;4970641;28;20134;-83
2022/04/26 08:32:42;;;;;;;13.98;8.63;;;;;;;13.06;70.44;99631.53;4956977;28;20052;-83
2022/04/26 08:35:11;;;;;;;13.38;8.70;;;;;;;13.11;70.12;99623.91;4970047;28;20575;-82
2022/04/26 08:37:38;;;;;;;13.48;8.85;;;;;;;13.15;70.15;99635.06;4970652;28;21012;-82
2022/04/26 08:40:07;;;;;;;11.80;7.78;;;;;;;13.14;70.00;99634.25;4986839;28;20046;-83
2022/04/26 08:42:36;;;;;;;12.05;8.38;;;;;;;13.19;69.85;99642.59;4972192;28;20117;-82
2022/04/26 08:45:18;;;;;;;15.73;8.70;;;;;;;13.20;69.46;99644.31;4946759;28;20061;-82
2022/04/26 08:53:21;;;;;;;11.60;7.60;;;;;;;13.24;69.62;99655.47;4981557;28;20039;-82
2022/04/26 08:55:53;;;;;;;12.10;7.80;;;;;;;13.28;69.47;99659.53;4973567;28;20085;-82
2022/04/26 08:58:21;;;;;;;14.20;8.70;;;;;;;13.23;69.36;99667.16;5003345;28;20134;-82
2022/04/26 09:01:04;;;;;;;13.52;8.68;;;;;;;13.12;68.66;99670.88;4984564;28;20042;-82
2022/04/26 09:03:37;;;;;;;12.60;8.32;;;;;;;13.16;68.97;99669.59;4917292;28;20062;-82
2022/04/26 09:06:13;;;;;;;15.55;8.52;;;;;;;13.12;68.87;99672.72;4940313;28;20414;-82
2022/04/26 09:08:40;;;;;;;15.40;9.43;;;;;;;13.17;69.29;99679.25;4987886;28;20125;-82
2022/04/26 09:11:27;;;;;;;14.38;8.65;;;;;;;13.04;70.59;99678.81;4972780;28;20149;-82
2022/04/26 09:13:54;;;;;;;13.93;8.13;;;;;;;13.13;70.65;99680.56;4950658;28;20050;-82
2022/04/26 09:16:22;;;;;;;17.50;10.60;;;;;;;13.13;70.91;99685.91;4989181;28;20880;-82
2022/04/26 09:18:56;;;;;;;18.33;10.57;;;;;;;13.08;71.46;99687.34;4937991;28;20100;-82
2022/04/26 09:21:27;;;;;;;15.90;9.80;;;;;;;13.09;71.07;99692.53;4934943;28;20042;-83
2022/04/26 09:24:06;;;;;;;18.20;11.00;;;;;;;13.01;70.87;99687.13;4936839;28;20045;-82
2022/04/26 09:26:38;;;;;;;24.83;13.32;;;;;;;13.08;70.40;99695.34;4985177;28;20421;-82
2022/04/26 09:29:06;;;;;;;23.10;13.55;;;;;;;13.12;69.78;99694.03;4983876;28;20054;-82
2022/04/26 09:31:38;;;;;;;21.30;12.60;;;;;;;13.09;70.31;99697.03;4969172;28;20046;-82
2022/04/26 09:34:11;;;;;;;19.60;11.70;;;;;;;13.07;70.16;99701.66;4986526;28;20401;-82
2022/04/26 09:36:44;;;;;;;;;;;;;;;12.84;71.84;99704.81;4991342;28;20046;-81
2022/04/26 09:39:19;;;;;;;16.30;9.15;;;;;;;13.02;69.90;99694.97;4996710;28;19929;-81
2022/04/26 09:42:06;;;;;;;16.65;10.00;;;;;;;13.13;70.29;99709.91;4938429;28;20437;-81
2022/04/26 09:44:38;;;;;;;14.10;8.25;;;;;;;13.13;70.00;99709.06;4984871;28;20385;-81
2022/04/26 09:47:05;;;;;;;14.15;9.50;;;;;;;13.18;69.99;99714.78;4983062;28;20124;-81
2022/04/26 09:49:37;;;;;;;16.48;8.93;;;;;;;13.17;68.44;99705.06;4983623;28;20709;-81
2022/04/26 09:52:06;;;;;;;13.70;9.35;;;;;;;13.33;68.27;99701.72;4984363;28;20052;-81
2022/04/26 09:54:35;;;;;;;14.75;8.85;;;;;;;13.33;68.89;99705.25;4984973;28;20050;-81
2022/04/26 09:57:05;;;;;;;21.52;11.82;;;;;;;13.37;67.32;99703.09;5000575;28;20052;-79
2022/04/26 09:59:52;;;;;;;20.55;11.02;;;;;;;13.20;68.37;99702.09;4965238;28;20060;-81
2022/04/26 10:02:19;;;;;;;19.73;11.15;;;;;;;13.24;68.91;99698.13;4968393;28;20038;-80
2022/04/26 10:04:52;;;;;;;19.23;11.32;;;;;;;13.14;68.48;99697.41;4982485;28;20461;-80
2022/04/26 10:07:19;;;;;;;18.15;10.57;;;;;;;13.15;68.54;99705.25;4968217;28;20761;-81
2022/04/26 10:09:48;;;;;;;19.92;11.57;;;;;;;13.12;68.40;99710.03;4984602;28;20038;-80
2022/04/26 10:12:16;;;;;;;19.55;11.00;;;;;;;13.18;68.31;99704.09;4981075;28;20053;-80
2022/04/26 10:14:43;;;;;;;19.30;11.55;;;;;;;13.21;68.68;99703.78;4985859;28;20049;-81
2022/04/26 10:17:10;;;;;;;21.77;11.10;;;;;;;13.24;67.93;99706.97;4986991;28;20140;-81
2022/04/26 10:19:42;;;;;;;19.92;10.23;;;;;;;13.26;67.94;99701.50;4981653;28;20047;-81
2022/04/26 10:22:11;;;;;;;19.67;10.23;;;;;;;13.29;67.94;99701.19;4986478;28;20049;-80
2022/04/26 10:24:41;;;;;;;18.63;10.80;;;;;;;13.31;67.50;99706.41;4965082;28;21356;-81
2022/04/26 10:27:23;;;;;;;16.88;10.07;;;;;;;13.15;64.49;99699.91;4983983;28;20046;-80
2022/04/26 10:29:49;;;;;;;16.27;10.18;;;;;;;13.23;66.16;99704.47;4997665;28;20045;-80
2022/04/26 10:32:30;;;;;;;15.30;9.20;;;;;;;13.07;65.39;99712.34;4983320;28;20497;-81
2022/04/26 10:35:26;;;;;;;16.98;9.70;;;;;;;13.06;65.02;99706.16;4954845;28;20060;-80
2022/04/26 10:38:13;;;;;;;12.93;8.35;;;;;;;13.16;65.24;99698.09;4982481;28;20050;-80
2022/04/26 10:41:07;;;;;;;14.48;8.77;;;;;;;13.16;64.76;99696.25;4954061;28;20096;-80
2022/04/26 10:43:33;;;;;;;14.77;7.93;;;;;;;13.37;65.32;99698.59;4937128;28;20038;-80
2022/04/26 10:46:15;;;;;;;15.52;8.90;;;;;;;13.37;65.02;99701.25;4990725;28;20042;-80
2022/04/26 10:48:42;;;;;;;16.50;8.18;;;;;;;13.38;64.58;99702.06;4997232;28;20062;-81
2022/04/26 10:51:36;;;;;;;16.02;8.05;;;;;;;13.13;62.06;99693.06;5001958;28;20042;-81
2022/04/26 10:54:04;;;;;;;11.52;6.60;;;;;;;13.23;63.00;99694.63;4964379;28;20038;-82
2022/04/26 10:56:34;;;;;;;11.60;6.85;;;;;;;13.31;62.36;99690.38;4985646;28;20398;-82
2022/04/26 10:59:01;;;;;;;10.00;6.93;;;;;;;13.31;62.95;99701.06;4985305;28;20046;-82
2022/04/26 11:01:29;;;;;;;11.57;7.18;;;;;;;13.33;62.88;99691.03;4982901;28;20506;-81
2022/04/26 11:03:58;;;;;;;11.75;7.25;;;;;;;13.33;63.26;99691.03;4983379;28;20124;-82
2022/04/26 11:06:37;;;;;;;10.98;7.28;;;;;;;13.24;62.73;99698.13;4968467;28;20038;-82
2022/04/26 11:09:08;;;;;;;12.40;7.65;;;;;;;13.30;63.63;99700.19;4977288;28;20046;-81
2022/04/26 11:11:52;;;;;;;11.35;7.55;;;;;;;13.20;63.21;99700.28;4965179;28;20056;-82
2022/04/26 11:14:22;;;;;;;10.50;6.68;;;;;;;13.33;64.21;99709.72;4989947;28;20042;-82
2022/04/26 11:17:02;;;;;;;9.73;5.88;;;;;;;13.27;64.60;99716.50;4982270;28;20054;-82
2022/04/26 11:19:33;;;;;;;9.65;6.47;;;;;;;13.37;65.34;99725.25;4982101;28;20046;-82
2022/04/26 11:22:08;;;;;;;11.50;5.82;;;;;;;13.34;66.22;99727.41;5001992;28;20115;-81
2022/04/26 11:30:10;;;;;;;14.75;9.10;;;;;;;13.33;65.91;99747.91;4963254;28;20038;-81
2022/04/26 11:32:38;;;;;;;15.02;9.65;;;;;;;13.33;66.41;99752.38;5000881;28;20085;-83
2022/04/26 11:35:06;;;;;;;15.10;9.63;;;;;;;13.33;66.39;99755.06;4968329;28;20091;-82
2022/04/26 11:37:45;;;;;;;15.82;9.57;;;;;;;13.24;66.14;99762.97;4962733;28;20841;-82
2022/04/26 11:40:12;;;;;;;21.83;10.60;;;;;;;13.33;66.71;99765.72;4975265;28;20046;-82
2022/04/26 11:42:38;;;;;;;16.63;9.82;;;;;;;13.32;66.84;99764.88;4984239;28;20050;-82
2022/04/26 11:45:06;;;;;;;19.85;11.50;;;;;;;13.33;67.69;99768.38;4979014;28;20034;-83
2022/04/26 11:47:39;;;;;;;17.70;10.30;;;;;;;13.30;66.99;99768.69;4964820;28;24569;-82
2022/04/26 11:50:27;;;;;;;15.00;10.18;;;;;;;13.19;67.12;99773.25;4996620;28;20049;-82
2022/04/26 11:53:05;;;;;;;16.95;10.15;;;;;;;13.23;66.86;99789.81;4944861;28;20053;-83
2022/04/26 11:55:34;;;;;;;17.27;11.05;;;;;;;13.30;66.82;99792.69;4987095;28;20049;-83
2022/04/26 11:58:20;;;;;;;17.92;11.90;;;;;;;13.24;66.73;99794.97;4968021;28;20050;-82
2022/04/26 12:01:02;;;;;;;18.90;11.98;;;;;;;13.24;66.56;99791.47;4964486;28;20101;-83
2022/04/26 12:03:31;;;;;;;23.73;13.70;;;;;;;13.31;66.72;99797.91;4981932;28;20047;-83
2022/04/26 12:06:01;;;;;;;23.02;14.18;;;;;;;13.35;66.65;99788.56;4968593;28;20050;-83
2022/04/26 12:08:28;;;;;;;21.85;13.23;;;;;;;13.39;66.64;99797.13;4983650;28;20119;-83
2022/04/26 12:11:21;;;;;;;16.92;10.88;;;;;;;13.32;66.38;99786.22;4984172;28;20133;-83
2022/04/26 12:14:14;;;;;;;14.13;9.35;;;;;;;13.38;66.28;99792.75;4878762;28;20046;-83
2022/04/26 12:16:54;;;;;;;15.82;9.23;;;;;;;13.49;66.56;99795.19;4950028;28;20216;-83
2022/04/26 12:19:37;;;;;;;11.55;8.02;;;;;;;13.48;66.13;99803.34;4961457;28;20073;-83
2022/04/26 12:22:05;;;;;;;8.60;6.38;;;;;;;13.60;65.97;99789.59;4964634;28;20053;-82
2022/04/26 12:24:40;;;;;;;8.57;5.65;;;;;;;13.67;65.89;99784.47;4972696;28;20126;-83
2022/04/26 12:27:15;;;;;;;8.02;4.80;;;;;;;13.65;65.28;99792.63;4987697;28;20057;-82
2022/04/26 12:29:44;;;;;;;7.78;4.75;;;;;;;13.76;65.51;99790.69;4987156;28;20050;-82
2022/04/26 12:32:14;;;;;;;6.75;4.25;;;;;;;13.82;65.29;99793.59;4955925;28;20043;-82
2022/04/26 12:34:51;;;;;;;9.48;5.63;;;;;;;13.81;65.37;99794.56;4988033;28;20042;-82
2022/04/26 12:37:29;;;;;;;10.73;6.35;;;;;;;13.86;66.52;99794.09;4988714;28;20042;-82
2022/04/26 12:40:07;;;;;;;7.85;5.82;;;;;;;13.92;65.19;99785.47;4956516;28;20661;-82
2022/04/26 12:42:36;;;;;;;9.50;6.25;;;;;;;14.01;65.27;99786.34;5007282;28;20062;-82
2022/04/26 12:45:24;;;;;;;9.50;6.63;;;;;;;14.00;62.05;99795.34;4986902;28;20128;-82
2022/04/26 12:50:53;;;;;;;10.05;5.85;;;;;;;13.86;63.88;99805.59;4978557;28;20383;-82
2022/04/26 12:53:31;;;;;;;8.75;5.50;;;;;;;13.77;63.83;99803.06;4985750;28;20502;-82
2022/04/26 12:56:06;;;;;;;6.28;4.85;;;;;;;13.70;63.28;99805.50;4984584;28;20038;-82
2022/04/26 12:58:37;;;;;;;5.65;4.63;;;;;;;13.79;64.30;99807.25;4965412;28;20050;-82
2022/04/26 13:01:06;;;;;;;6.57;3.95;;;;;;;13.80;64.50;99802.75;4993913;28;20070;-82
2022/04/26 13:03:34;;;;;;;5.95;4.30;;;;;;;13.80;63.83;99813.41;4991634;28;20050;-82
2022/04/26 13:06:10;;;;;;;8.60;3.97;;;;;;;13.67;63.42;99817.34;4970112;28;20448;-82
2022/04/26 13:08:56;;;;;;;6.70;4.40;;;;;;;13.56;63.45;99814.94;4944338;28;20484;-82
2022/04/26 13:11:30;;;;;;;8.40;4.15;;;;;;;13.57;62.93;99821.09;5001935;28;20057;-82
2022/04/26 13:13:57;;;;;;;5.13;3.83;;;;;;;13.56;63.37;99822.94;4989045;28;20627;-82
2022/04/26 13:16:23;;;;;;;14.90;4.45;;;;;;;13.57;63.98;99821.94;4971926;28;20054;-82
2022/04/26 13:18:50;;;;;;;7.68;3.70;;;;;;;13.56;64.35;99825.59;4968788;28;20498;-81
2022/04/26 13:21:17;;;;;;;8.07;4.25;;;;;;;13.55;64.71;99817.75;4986807;28;20085;-82
2022/04/26 13:23:44;;;;;;;6.55;3.45;;;;;;;13.55;64.51;99831.91;4985015;28;20042;-82
2022/04/26 13:26:12;;;;;;;5.43;3.42;;;;;;;13.53;64.19;99830.38;4984155;28;20490;-81
2022/04/26 13:28:39;;;;;;;5.38;3.65;;;;;;;13.56;64.32;99830.94;4982191;28;20130;-82
2022/04/26 13:31:05;;;;;;;5.70;3.40;;;;;;;13.57;64.45;99824.59;4974427;28;20073;-82
2022/04/26 13:33:32;;;;;;;4.30;3.33;;;;;;;13.61;64.68;99828.63;4973288;28;20054;-82
2022/04/26 13:35:59;;;;;;;6.95;3.47;;;;;;;13.61;64.03;99838.44;4983842;28;20421;-82
2022/04/26 13:38:26;;;;;;;5.65;3.67;;;;;;;13.60;64.99;99834.13;4981153;28;20104;-82
2022/04/26 13:40:54;;;;;;;5.47;3.83;;;;;;;13.63;65.25;99831.13;4953426;28;20070;-81
2022/04/26 13:43:23;;;;;;;5.55;4.05;;;;;;;13.72;64.78;99827.53;4962998;28;20042;-81
2022/04/26 13:46:11;;;;;;;6.50;4.10;;;;;;;13.75;64.61;99826.41;4985578;28;20053;-82
2022/04/26 13:48:38;;;;;;;6.43;4.88;;;;;;;13.74;64.86;99822.91;4984174;28;20042;-81
2022/04/26 13:51:04;;;;;;;6.57;3.60;;;;;;;13.79;64.99;99812.59;4983052;28;20061;-82
2022/04/26 13:53:31;;;;;;;8.15;5.20;;;;;;;13.78;65.01;99807.41;4986164;28;20493;-82
2022/04/26 13:55:59;;;;;;;6.30;4.32;;;;;;;13.77;64.95;99813.75;4985483;28;20061;-81
2022/04/26 13:58:26;;;;;;;7.72;4.35;;;;;;;13.85;64.87;99808.44;4967710;28;20089;-82
2022/04/26 14:00:54;;;;;;;6.50;4.65;;;;;;;13.87;64.78;99812.63;4963528;28;20043;-82
2022/04/26 14:03:21;;;;;;;5.45;3.83;;;;;;;13.84;65.28;99809.41;4969141;28;20046;-81
2022/04/26 14:05:47;;;;;;;7.13;4.65;;;;;;;13.93;65.55;99802.31;4987069;28;20042;-82
2022/04/26 14:08:15;;;;;;;7.65;4.03;;;;;;;13.99;65.25;99799.00;4971298;28;20057;-82
2022/04/26 14:10:42;;;;;;;9.60;5.63;;;;;;;14.05;65.30;99804.56;4973593;28;20163;-82
2022/04/26 14:13:09;;;;;;;10.80;5.03;;;;;;;14.14;65.51;99801.91;4986080;28;20551;-82
2022/04/26 14:23:53;;;;;;;6.97;4.28;;;;;;;14.20;64.46;99796.78;4997040;28;20050;-82
2022/04/26 14:26:20;;;;;;;4.20;3.10;;;;;;;14.26;62.02;99796.13;4957683;28;20058;-82
2022/04/26 14:28:47;;;;;;;4.10;2.97;;;;;;;14.20;62.63;99795.97;4967249;28;20614;-82
2022/04/26 14:31:13;;;;;;;5.07;2.80;;;;;;;14.23;63.16;99796.47;4964274;28;20127;-82
2022/04/26 14:33:41;;;;;;;2.95;2.55;;;;;;;14.29;63.11;99798.47;4961426;28;20046;-82
2022/04/26 14:36:08;;;;;;;4.03;2.95;;;;;;;14.34;62.97;99796.16;4948792;28;20066;-82
2022/04/26 14:38:35;;;;;;;3.28;2.55;;;;;;;14.37;63.41;99810.19;4967960;28;20042;-82
2022/04/26 14:41:01;;;;;;;5.95;3.30;;;;;;;14.42;62.70;99807.88;4970037;28;20042;-82
2022/04/26 14:43:28;;;;;;;4.15;2.92;;;;;;;14.45;63.03;99808.41;4964542;28;20125;-82
2022/04/26 14:45:55;;;;;;;4.55;2.90;;;;;;;14.44;62.41;99801.38;4977900;28;20055;-82
2022/04/26 14:48:23;;;;;;;8.05;3.03;;;;;;;14.39;62.02;99806.38;4966308;28;20093;-82
2022/04/26 14:50:53;;;;;;;4.45;2.67;;;;;;;14.34;61.30;99808.69;4967416;28;20064;-82
2022/04/26 14:53:21;;;;;;;4.88;3.08;;;;;;;14.33;61.51;99807.03;4971187;28;20038;-82
2022/04/26 14:56:06;;;;;;;4.68;2.92;;;;;;;14.29;61.63;99811.84;4987463;28;20045;-82
2022/04/26 14:58:54;;;;;;;5.75;2.90;;;;;;;14.32;60.83;99811.53;4965390;28;20789;-82
2022/04/26 15:01:21;;;;;;;6.10;2.80;;;;;;;14.32;61.16;99816.88;4984314;28;20429;-82
2022/04/26 15:03:48;;;;;;;5.63;3.83;;;;;;;14.38;61.72;99817.25;4967823;28;20101;-82
2022/04/26 15:06:15;;;;;;;4.50;2.90;;;;;;;14.44;61.49;99820.09;4982214;28;20141;-81
2022/04/26 15:11:28;;;;;;;4.10;3.20;;;;;;;14.52;61.42;99820.09;4966914;28;20054;-82
2022/04/26 15:16:46;;;;;;;5.05;3.50;;;;;;;14.48;60.71;99826.78;4955808;28;20075;-83
2022/04/26 15:19:14;;;;;;;6.80;3.55;;;;;;;14.43;60.81;99823.75;4977371;28;20057;-81
2022/04/26 15:21:43;;;;;;;5.90;3.40;;;;;;;14.43;60.58;99826.44;5002073;28;20062;-83
2022/04/26 15:24:12;;;;;;;6.57;3.72;;;;;;;14.41;60.28;99833.75;4954611;28;20050;-80
2022/04/26 15:26:40;;;;;;;5.45;3.28;;;;;;;14.40;60.32;99826.75;5003837;28;20891;-80
2022/04/26 15:29:08;;;;;;;5.72;3.33;;;;;;;14.41;60.64;99822.25;4966940;28;20126;-81
2022/04/26 15:31:35;;;;;;;5.55;3.38;;;;;;;14.41;60.21;99825.75;4971605;28;20053;-82
2022/04/26 15:34:03;;;;;;;4.72;2.88;;;;;;;14.42;60.17;99837.28;4982324;28;20064;-81
2022/04/26 15:36:32;;;;;;;4.80;3.13;;;;;;;14.42;60.18;99842.63;4975304;28;20092;-81
2022/04/26 15:38:59;;;;;;;4.15;3.00;;;;;;;14.45;59.80;99839.63;4964803;28;20089;-78
2022/04/26 15:41:26;;;;;;;3.90;3.03;;;;;;;14.43;60.22;99842.47;4963579;28;20039;-79
2022/04/26 15:43:53;;;;;;;3.85;2.95;;;;;;;14.43;60.15;99838.97;4966069;28;20050;-79
2022/04/26 15:46:39;;;;;;;3.50;2.60;;;;;;;14.43;60.06;99845.13;4935180;28;20050;-79